Time;durP1;ratioP1;P1;durP2;ratioP2;P2;SDS_P1;SDS_P2;PMS_P1;PMS_P2;Temp;Humidity;BMP_temperature;BMP_pressure;BME280_temperature;BME280_humidity;BME280_pressure;Samples;Min_cycle;Max_cycle;Signal;HPM_P1;HPM_P2
2022/01/12 00:00:21;;;;;;;;;54.25;39.75;;;;;4.03;63.59;103135.16;5041453;28;45341;-47
2022/01/12 00:02:47;;;;;;;;;47.50;39.75;;;;;4.04;63.60;103139.56;5041489;28;45413;-48
2022/01/12 00:05:14;;;;;;;;;56.50;41.00;;;;;4.03;63.50;103132.56;5046949;28;45220;-46
2022/01/12 00:07:39;;;;;;;;;36.75;31.00;;;;;4.04;63.81;103136.97;5071818;28;45330;-49
2022/01/12 00:10:05;;;;;;;;;54.50;39.50;;;;;4.06;63.50;103144.03;5031381;28;46023;-46
2022/01/12 00:12:30;;;;;;;;;44.00;37.25;;;;;4.05;63.37;103141.31;5053715;28;45382;-45
2022/01/12 00:14:56;;;;;;;;;47.25;38.50;;;;;4.00;63.88;103145.41;5057025;28;45413;-49
2022/01/12 00:17:21;;;;;;;;;45.50;37.00;;;;;4.00;63.69;103142.78;5051609;28;45388;-48
2022/01/12 00:19:46;;;;;;;;;43.50;38.00;;;;;3.99;63.59;103144.50;5040933;28;45558;-50
2022/01/12 00:22:13;;;;;;;;;36.25;32.75;;;;;3.98;63.48;103136.63;5041297;28;45468;-49
2022/01/12 00:25:02;;;;;;;;;47.75;36.75;;;;;3.96;63.49;103127.84;5041109;28;45366;-48
2022/01/12 00:33:13;;;;;;;;;45.25;38.50;;;;;3.97;63.34;103143.53;5040965;28;45321;-45
2022/01/12 00:35:41;;;;;;;;;47.50;34.50;;;;;3.97;63.61;103142.66;5040969;28;45477;-47
2022/01/12 00:38:07;;;;;;;;;52.00;39.00;;;;;3.97;63.57;103143.53;5073259;28;45589;-47
2022/01/12 00:40:37;;;;;;;;;45.25;36.25;;;;;4.00;63.25;103143.72;5048530;28;46054;-46
2022/01/12 00:43:03;;;;;;;;;48.75;39.50;;;;;3.99;63.76;103146.25;5040552;28;45317;-47
2022/01/12 00:45:28;;;;;;;;;43.75;36.00;;;;;4.00;63.86;103148.91;5041026;28;45342;-49
2022/01/12 00:47:53;;;;;;;;;50.25;35.75;;;;;3.97;63.80;103146.13;5040813;28;45575;-49
2022/01/12 00:50:19;;;;;;;;;48.75;39.50;;;;;4.01;63.52;103161.13;5057394;28;46017;-47
2022/01/12 00:52:44;;;;;;;;;46.50;40.25;;;;;3.99;63.81;103156.66;5056259;28;45242;-47
2022/01/12 00:55:09;;;;;;;;;48.75;39.75;;;;;4.02;63.89;103156.78;5048131;28;45253;-48
2022/01/12 00:57:35;;;;;;;;;50.50;38.50;;;;;4.05;63.41;103156.94;5040372;28;45600;-46
2022/01/12 01:00:00;;;;;;;;;49.75;39.50;;;;;4.04;63.29;103155.16;5040367;28;46523;-47
2022/01/12 01:02:26;;;;;;;;;46.50;37.75;;;;;4.06;63.54;103162.25;5040289;28;45249;-48
2022/01/12 01:04:51;;;;;;;;;35.75;33.50;;;;;4.07;63.46;103160.50;5040471;28;45450;-49
2022/01/12 01:07:17;;;;;;;;;38.75;33.00;;;;;4.06;63.22;103164.84;5040122;28;45267;-47
2022/01/12 01:09:51;;;;;;;;;46.25;38.50;;;;;4.09;63.43;103173.59;5039904;28;46198;-47
2022/01/12 01:12:17;;;;;;;;;55.75;41.75;;;;;4.09;63.84;103174.50;5053158;28;45237;-46
2022/01/12 01:15:04;;;;;;;;;54.50;38.25;;;;;4.07;63.82;103164.03;5013699;28;45175;-46
2022/01/12 01:25:36;;;;;;;;;45.75;38.75;;;;;4.12;63.46;103192.00;5060464;28;45315;-49
2022/01/12 01:28:03;;;;;;;;;36.50;26.75;;;;;4.12;63.56;103184.19;5050404;28;45316;-46
2022/01/12 01:30:29;;;;;;;;;46.50;36.25;;;;;4.11;63.51;103192.81;5040048;28;46149;-47
2022/01/12 01:32:57;;;;;;;;;48.75;37.00;;;;;4.13;63.57;103196.38;5044156;28;45234;-48
2022/01/12 01:35:27;;;;;;;;;44.00;36.50;;;;;4.13;63.72;103207.69;5040134;28;45310;-47
2022/01/12 01:37:52;;;;;;;;;51.00;38.00;;;;;4.13;63.61;103212.88;5022311;28;45435;-49
2022/01/12 01:40:17;;;;;;;;;45.00;35.75;;;;;4.12;63.39;103213.69;5039791;28;46147;-45
2022/01/12 01:53:30;;;;;;;;;42.00;37.75;;;;;4.08;63.43;103229.97;5039948;28;45401;-48
2022/01/12 01:55:55;;;;;;;;;57.00;43.25;;;;;4.07;63.52;103220.38;5039617;28;45337;-46
2022/01/12 01:58:21;;;;;;;;;50.75;38.75;;;;;4.06;63.76;103222.09;5021986;28;45476;-49
2022/01/12 02:00:46;;;;;;;;;55.75;37.50;;;;;4.05;63.55;103233.31;5039539;28;45311;-50
2022/01/12 02:03:12;;;;;;;;;53.75;40.75;;;;;4.05;63.76;103224.59;5039655;28;45328;-48
2022/01/12 02:05:42;;;;;;;;;55.25;38.75;;;;;4.07;63.59;103233.38;5042904;28;45389;-49
2022/01/12 02:08:07;;;;;;;;;44.00;35.25;;;;;4.03;63.83;103229.72;5039737;28;45411;-48
2022/01/12 02:10:33;;;;;;;;;46.75;37.25;;;;;4.05;63.85;103230.72;5044844;28;46799;-46
2022/01/12 02:12:58;;;;;;;;;46.25;38.75;;;;;4.03;63.79;103231.44;5039331;28;45427;-47
2022/01/12 02:15:25;;;;;;;;;45.25;38.25;;;;;4.04;63.63;103241.94;5046295;28;45563;-47
2022/01/12 02:18:17;;;;;;;;;51.50;40.25;;;;;4.04;63.76;103234.13;5039722;28;45527;-49
2022/01/12 02:40:26;;;;;;;;;48.75;40.00;;;;;3.89;63.75;103233.31;5062760;28;45400;-48
2022/01/12 02:53:43;;;;;;;;;50.75;41.00;;;;;3.84;63.73;103208.78;5042594;28;45349;-47
2022/01/12 02:56:13;;;;;;;;;52.25;40.75;;;;;3.85;63.99;103205.31;5042525;28;45167;-48
2022/01/12 02:58:40;;;;;;;;;56.25;40.00;;;;;3.82;63.78;103193.06;5042644;28;45368;-45
2022/01/12 03:03:41;;;;;;;;;55.25;40.00;;;;;3.80;64.22;103168.69;5042434;28;45325;-47
2022/01/12 03:06:08;;;;;;;;;56.00;43.25;;;;;3.79;64.02;103169.50;5042276;28;45293;-48
2022/01/12 03:08:37;;;;;;;;;42.50;35.00;;;;;3.77;64.51;103167.63;5042652;28;45233;-48
2022/01/12 03:11:11;;;;;;;;;54.00;41.50;;;;;3.74;64.45;103165.75;5052685;28;45626;-47
2022/01/12 03:13:38;;;;;;;;;47.75;40.00;;;;;3.74;64.32;103181.38;5043871;28;47218;-50
2022/01/12 03:16:17;;;;;;;;;51.75;41.25;;;;;3.73;64.28;103184.78;5062329;28;45341;-50
2022/01/12 03:18:44;;;;;;;;;55.00;41.00;;;;;3.71;64.29;103181.19;5062604;28;45258;-49
2022/01/12 03:21:10;;;;;;;;;45.50;38.00;;;;;3.67;64.00;103193.16;5044156;28;45503;-47
2022/01/12 03:23:36;;;;;;;;;53.50;41.25;;;;;3.69;64.27;103199.31;5062241;28;45403;-46
2022/01/12 03:26:02;;;;;;;;;46.25;39.75;;;;;3.71;64.20;103205.50;5061988;28;45367;-46
2022/01/12 03:28:27;;;;;;;;;53.75;36.75;;;;;3.73;64.20;103205.59;5044093;28;45282;-50
2022/01/12 03:31:14;;;;;;;;;54.50;41.00;;;;;3.70;64.01;103208.03;5062112;28;45547;-49
2022/01/12 03:38:57;;;;;;;;;47.25;38.75;;;;;3.75;64.25;103219.56;5062145;28;45297;-48
2022/01/12 03:41:24;;;;;;;;;42.00;38.75;;;;;3.76;63.96;103218.78;5061908;28;45420;-48
2022/01/12 03:43:50;;;;;;;;;41.00;34.00;;;;;3.76;63.92;103220.47;5061640;28;45286;-47
2022/01/12 03:46:20;;;;;;;;;56.25;40.75;;;;;3.79;63.94;103221.53;5062049;28;45404;-46
2022/01/12 03:48:46;;;;;;;;;59.50;44.50;;;;;3.78;64.04;103219.72;5043008;28;45258;-47
2022/01/12 03:51:11;;;;;;;;;48.00;37.50;;;;;3.79;63.84;103221.53;5041816;28;45362;-47
2022/01/12 03:53:36;;;;;;;;;38.75;35.25;;;;;3.79;64.46;103224.13;5023557;28;46153;-51
2022/01/12 03:56:02;;;;;;;;;42.00;34.75;;;;;3.76;64.07;103223.97;5041586;28;45388;-48
2022/01/12 03:58:27;;;;;;;;;46.00;35.25;;;;;3.77;64.40;103227.44;5041394;28;45326;-50
2022/01/12 04:00:53;;;;;;;;;45.75;36.25;;;;;3.73;64.21;103215.97;5041594;28;45266;-47
2022/01/12 04:03:18;;;;;;;;;52.25;39.00;;;;;3.73;64.07;103229.88;5041486;28;45301;-49
2022/01/12 04:08:27;;;;;;;;;40.25;33.75;;;;;3.71;64.02;103249.72;5041601;28;45446;-48
2022/01/12 04:11:00;;;;;;;;;44.00;33.00;;;;;3.71;64.40;103249.72;5050371;28;45301;-48
2022/01/12 04:13:28;;;;;;;;;47.25;35.00;;;;;3.71;64.43;103238.41;5061002;28;46240;-49
2022/01/12 04:15:57;;;;;;;;;36.25;31.50;;;;;3.71;64.34;103254.94;5061437;28;45324;-46
2022/01/12 04:18:23;;;;;;;;;34.75;32.00;;;;;3.71;64.24;103275.72;5061451;28;45284;-48
2022/01/12 04:20:50;;;;;;;;;38.75;31.50;;;;;3.71;63.91;103265.31;5061541;28;45395;-47
2022/01/12 04:23:18;;;;;;;;;39.00;31.50;;;;;3.74;64.06;103277.59;5061120;28;45921;-49
2022/01/12 04:25:56;;;;;;;;;33.50;27.25;;;;;3.76;64.26;103288.09;5061261;28;45290;-49
2022/01/12 04:28:23;;;;;;;;;42.75;33.50;;;;;3.75;64.42;103269.00;5061008;28;45350;-50
2022/01/12 04:30:50;;;;;;;;;39.75;33.75;;;;;3.77;64.04;103266.47;5061313;28;45246;-49
2022/01/12 04:33:17;;;;;;;;;42.25;31.00;;;;;3.79;64.21;103278.75;5061088;28;46209;-50
2022/01/12 04:35:52;;;;;;;;;39.00;33.25;;;;;3.80;63.78;103270.13;5061289;28;45378;-50
2022/01/12 04:38:20;;;;;;;;;78.25;55.50;;;;;3.79;64.24;103276.16;5061507;28;45400;-50
2022/01/12 04:40:46;;;;;;;;;35.00;30.50;;;;;3.80;63.86;103275.34;5043282;28;45479;-50
2022/01/12 04:43:12;;;;;;;;;39.25;33.00;;;;;3.79;64.32;103276.16;5060949;28;45233;-46
2022/01/12 04:45:58;;;;;;;;;45.75;37.75;;;;;3.78;63.90;103282.16;5060823;28;45251;-49
2022/01/12 04:50:53;;;;;;;;;39.00;32.75;;;;;3.78;63.80;103297.75;5043099;28;45341;-48
2022/01/12 04:53:19;;;;;;;;;40.75;35.50;;;;;3.77;64.10;103300.28;5040565;28;46091;-49
2022/01/12 04:55:46;;;;;;;;;49.50;35.00;;;;;3.77;64.10;103305.50;5040549;28;45253;-48
2022/01/12 04:58:14;;;;;;;;;47.50;34.50;;;;;3.75;63.83;103295.00;5040601;28;45563;-46
2022/01/12 05:00:41;;;;;;;;;43.75;38.00;;;;;3.75;64.05;103297.59;5022675;28;45380;-51
2022/01/12 05:08:50;;;;;;;;;51.25;37.75;;;;;3.78;63.93;103312.50;5060647;28;45297;-47
2022/01/12 05:14:01;;;;;;;;;37.50;30.50;;;;;3.79;64.40;103307.38;5060314;28;45795;-49
2022/01/12 05:16:27;;;;;;;;;46.50;39.25;;;;;3.80;64.18;103319.56;5060264;28;45313;-48
2022/01/12 05:18:54;;;;;;;;;37.00;32.75;;;;;3.82;63.95;103315.31;5060672;28;45383;-48
2022/01/12 05:21:22;;;;;;;;;48.00;38.25;;;;;3.82;64.28;103317.03;5060318;28;45355;-46
2022/01/12 05:23:48;;;;;;;;;46.25;36.25;;;;;3.84;64.23;103333.63;5060208;28;46211;-48
2022/01/12 05:26:14;;;;;;;;;43.50;35.50;;;;;3.82;64.09;103315.31;5060150;28;45391;-49
2022/01/12 05:28:39;;;;;;;;;35.00;30.75;;;;;3.84;64.53;103311.09;5060354;28;45301;-46
2022/01/12 05:31:07;;;;;;;;;52.25;36.50;;;;;3.84;64.48;103313.72;5060268;28;45531;-47
2022/01/12 05:33:33;;;;;;;;;44.00;38.50;;;;;3.85;64.44;103312.91;5060350;28;45444;-46
2022/01/12 05:36:03;;;;;;;;;46.75;38.25;;;;;3.85;64.25;103289.50;5060085;28;45485;-48
2022/01/12 05:38:28;;;;;;;;;42.00;35.00;;;;;3.86;64.29;103296.50;5060396;28;45306;-50
2022/01/12 05:40:59;;;;;;;;;45.25;36.25;;;;;3.85;64.33;103302.50;5059808;28;45590;-50
2022/01/12 05:43:28;;;;;;;;;46.25;39.75;;;;;3.86;64.48;103288.69;5059737;28;46260;-49
2022/01/12 05:45:56;;;;;;;;;44.00;32.50;;;;;3.86;64.47;103299.09;5059912;28;45285;-51
2022/01/12 05:51:07;;;;;;;;;50.00;38.25;;;;;3.86;63.98;103308.59;5040369;28;45415;-50
2022/01/12 05:53:32;;;;;;;;;44.00;36.50;;;;;3.83;64.25;103296.31;5039726;28;45168;-50
2022/01/12 05:55:58;;;;;;;;;44.25;35.75;;;;;3.84;64.34;103300.69;5039531;28;45310;-48
2022/01/12 05:58:23;;;;;;;;;39.25;35.75;;;;;3.85;64.53;103307.69;5039560;28;45154;-51
2022/01/12 06:00:48;;;;;;;;;48.25;38.75;;;;;3.84;64.20;103302.41;5039662;28;45475;-49
2022/01/12 06:03:14;;;;;;;;;44.25;36.50;;;;;3.84;64.48;103305.03;5021736;28;47109;-49
2022/01/12 06:05:39;;;;;;;;;49.75;39.00;;;;;3.83;64.46;103309.31;5039528;28;45418;-48
2022/01/12 06:08:05;;;;;;;;;50.50;41.00;;;;;3.84;64.20;103312.81;5021856;28;45444;-48
2022/01/12 06:10:30;;;;;;;;;46.50;40.00;;;;;3.85;64.06;103322.41;5045522;28;45315;-50
2022/01/12 06:12:55;;;;;;;;;56.50;41.75;;;;;3.86;64.67;103330.31;5059479;28;45340;-49
2022/01/12 06:15:21;;;;;;;;;47.25;37.50;;;;;3.87;64.58;103320.78;5059712;28;45289;-47
2022/01/12 06:17:48;;;;;;;;;54.50;39.25;;;;;3.83;64.38;103324.03;5059764;28;45304;-47
2022/01/12 06:20:13;;;;;;;;;52.50;40.25;;;;;3.83;64.47;103324.91;5059335;28;45350;-49
2022/01/12 06:22:38;;;;;;;;;44.00;33.00;;;;;3.84;64.15;103313.72;5059612;28;45399;-50
2022/01/12 06:25:08;;;;;;;;;58.00;42.25;;;;;3.82;64.18;103311.84;5059078;28;45405;-50
2022/01/12 06:27:34;;;;;;;;;53.25;41.00;;;;;3.83;64.72;103314.50;5059715;28;45316;-51
2022/01/12 06:32:44;;;;;;;;;39.75;36.00;;;;;3.82;64.28;103309.22;5059901;28;45779;-47
2022/01/12 06:35:09;;;;;;;;;48.50;35.50;;;;;3.83;64.42;103313.63;5060070;28;45500;-49
2022/01/12 06:37:34;;;;;;;;;30.25;28.50;;;;;3.82;64.35;103310.13;5059571;28;45343;-47
2022/01/12 06:40:00;;;;;;;;;53.00;38.50;;;;;3.80;64.16;103314.34;5059351;28;45388;-47
2022/01/12 06:42:26;;;;;;;;;47.25;38.75;;;;;3.78;64.58;103313.38;5059272;28;46265;-48
2022/01/12 06:44:51;;;;;;;;;47.25;36.25;;;;;3.79;64.40;103309.09;5041261;28;45757;-50
2022/01/12 06:47:19;;;;;;;;;56.25;39.25;;;;;3.78;64.59;103330.69;5059496;28;45316;-45
2022/01/12 06:49:44;;;;;;;;;41.75;36.00;;;;;3.75;64.30;103331.44;5049827;28;45504;-46
2022/01/12 06:52:10;;;;;;;;;45.00;40.25;;;;;3.77;64.34;103334.09;5038933;28;46305;-47
2022/01/12 06:54:35;;;;;;;;;35.00;29.50;;;;;3.73;64.77;103325.22;5039163;28;45228;-46
2022/01/12 06:57:01;;;;;;;;;50.75;38.00;;;;;3.76;64.49;103329.69;5039150;28;45262;-46
2022/01/12 06:59:26;;;;;;;;;43.75;34.75;;;;;3.73;64.30;103335.63;5037986;28;45178;-47
2022/01/12 07:01:51;;;;;;;;;44.50;29.75;;;;;3.71;64.47;103332.97;5056086;28;45300;-50
2022/01/12 07:04:17;;;;;;;;;37.75;30.75;;;;;3.70;64.77;103336.34;5038858;28;45296;-49
2022/01/12 07:06:42;;;;;;;;;38.50;33.75;;;;;3.71;64.62;103332.97;5058451;28;45447;-49
2022/01/12 07:09:07;;;;;;;;;34.50;29.50;;;;;3.71;64.75;103324.25;5056541;28;45239;-47
2022/01/12 07:11:33;;;;;;;;;44.00;35.50;;;;;3.71;64.24;103324.25;5056863;28;45439;-51
2022/01/12 07:13:58;;;;;;;;;44.75;34.00;;;;;3.68;64.45;103314.56;5062163;28;45252;-47
2022/01/12 07:16:23;;;;;;;;;41.00;34.25;;;;;3.67;64.38;103318.00;5062378;28;45184;-50
2022/01/12 07:18:49;;;;;;;;;31.75;27.50;;;;;3.68;64.52;103324.09;5062574;28;45241;-49
2022/01/12 07:21:15;;;;;;;;;43.25;38.25;;;;;3.67;64.40;103311.88;5062083;28;45194;-48
2022/01/12 07:23:40;;;;;;;;;41.50;33.00;;;;;3.65;64.45;103311.81;5062328;28;45312;-50
2022/01/12 07:26:07;;;;;;;;;41.25;37.00;;;;;3.67;64.35;103309.28;5062042;28;45337;-49
2022/01/12 07:28:32;;;;;;;;;42.75;35.75;;;;;3.66;64.52;103310.09;5043774;28;45352;-49
2022/01/12 07:30:58;;;;;;;;;41.75;34.25;;;;;3.68;64.62;103314.56;5061681;28;45485;-47
2022/01/12 07:33:25;;;;;;;;;43.00;31.50;;;;;3.62;64.33;103300.34;5062066;28;45348;-47
2022/01/12 07:35:51;;;;;;;;;40.00;34.25;;;;;3.68;64.54;103317.16;5061809;28;45260;-48
2022/01/12 07:38:16;;;;;;;;;38.50;33.00;;;;;3.62;64.66;103322.03;5062246;28;45237;-47
2022/01/12 07:40:42;;;;;;;;;53.75;38.75;;;;;3.69;64.32;103344.97;5061591;28;46176;-49
2022/01/12 07:43:07;;;;;;;;;44.50;38.25;;;;;3.70;64.73;103348.47;5043412;28;45263;-50
2022/01/12 07:45:34;;;;;;;;;40.00;30.75;;;;;3.69;64.47;103350.16;5061862;28;45471;-47
2022/01/12 07:48:00;;;;;;;;;46.25;37.25;;;;;3.66;64.38;103359.50;5061845;28;45428;-46
2022/01/12 07:50:26;;;;;;;;;49.00;38.00;;;;;3.69;64.51;103364.91;5046650;28;47028;-46
2022/01/12 07:52:53;;;;;;;;;44.75;35.75;;;;;3.64;64.50;103364.63;5041456;28;45379;-50
2022/01/12 07:55:20;;;;;;;;;47.25;38.50;;;;;3.68;64.98;103370.91;5041353;28;45412;-47
2022/01/12 07:57:47;;;;;;;;;52.00;39.00;;;;;3.66;64.62;103375.09;5041270;28;45278;-47
2022/01/12 08:00:13;;;;;;;;;49.75;38.00;;;;;3.66;64.75;103376.03;5045450;28;46898;-49
2022/01/12 08:02:38;;;;;;;;;46.00;35.75;;;;;3.66;64.87;103376.03;5037332;28;45684;-49
2022/01/12 08:05:04;;;;;;;;;50.00;38.50;;;;;3.66;64.58;103376.03;5045988;28;45316;-47
2022/01/12 08:07:35;;;;;;;;;53.50;41.50;;;;;3.63;64.53;103370.63;5037481;28;45416;-48
2022/01/12 08:10:02;;;;;;;;;44.75;37.50;;;;;3.66;64.57;103372.50;5054308;28;46025;-49
2022/01/12 08:12:27;;;;;;;;;44.00;37.75;;;;;3.67;64.47;103369.09;5026292;28;45435;-48
2022/01/12 08:14:52;;;;;;;;;44.75;36.50;;;;;3.71;64.61;103377.19;5052218;28;45336;-47
2022/01/12 08:17:18;;;;;;;;;55.75;42.00;;;;;3.72;64.78;103383.25;5054364;28;45553;-47
2022/01/12 08:19:43;;;;;;;;;51.75;40.25;;;;;3.72;64.76;103391.06;5042315;28;45605;-49
2022/01/12 08:22:09;;;;;;;;;48.75;38.50;;;;;3.74;64.87;103399.84;5052281;28;45346;-46
2022/01/12 08:24:34;;;;;;;;;43.50;40.25;;;;;3.73;64.62;103398.94;5048878;28;45462;-48
2022/01/12 08:27:00;;;;;;;;;49.75;39.25;;;;;3.75;64.82;103419.88;5046890;28;45330;-48
2022/01/12 08:29:28;;;;;;;;;43.25;37.75;;;;;3.73;64.34;103427.56;5059453;28;45539;-50
2022/01/12 08:31:53;;;;;;;;;53.50;39.25;;;;;3.76;64.54;103432.06;5047870;28;45522;-47
2022/01/12 08:34:19;;;;;;;;;51.50;40.00;;;;;3.74;64.80;103424.16;5050399;28;45432;-50
2022/01/12 08:36:44;;;;;;;;;46.00;34.00;;;;;3.79;64.30;103434.81;5057437;28;45343;-51
2022/01/12 08:39:09;;;;;;;;;51.75;38.75;;;;;3.79;65.10;103429.63;5055780;28;46124;-52
2022/01/12 08:41:36;;;;;;;;;51.00;40.50;;;;;3.79;64.66;103445.22;5047872;28;45461;-49
2022/01/12 08:44:04;;;;;;;;;56.00;39.00;;;;;3.79;64.85;103434.81;5047363;28;45434;-51
2022/01/12 08:46:30;;;;;;;;;52.25;40.00;;;;;3.82;65.09;103434.09;5053271;28;45337;-47
2022/01/12 08:48:56;;;;;;;;;60.00;43.25;;;;;3.83;65.01;103441.09;5052209;28;45407;-48
2022/01/12 08:51:21;;;;;;;;;57.00;40.75;;;;;3.84;64.62;103456.78;5048352;28;45755;-46
2022/01/12 08:53:46;;;;;;;;;65.25;47.75;;;;;3.87;64.79;103456.06;5046594;28;45389;-50
2022/01/12 08:56:12;;;;;;;;;50.25;38.75;;;;;3.88;64.61;103461.34;5056683;28;45471;-52
2022/01/12 08:58:37;;;;;;;;;53.75;43.25;;;;;3.89;64.37;103457.94;5035985;28;47385;-53
2022/01/12 09:01:04;;;;;;;;;56.00;42.25;;;;;3.90;64.63;103457.16;5045305;28;45411;-49
2022/01/12 09:03:31;;;;;;;;;61.50;43.75;;;;;3.93;64.51;103463.34;5051991;28;45357;-48
2022/01/12 09:05:57;;;;;;;;;49.75;39.50;;;;;3.97;64.93;103463.59;5046847;28;45431;-52
2022/01/12 09:08:22;;;;;;;;;51.00;38.00;;;;;3.97;64.82;103458.38;5051351;28;45922;-51
2022/01/12 09:10:47;;;;;;;;;53.75;42.00;;;;;4.04;64.97;103472.66;5050865;28;45238;-50
2022/01/12 09:13:13;;;;;;;;;46.75;37.00;;;;;4.07;64.61;103472.81;5056709;28;45155;-52
2022/01/12 09:15:38;;;;;;;;;49.75;40.50;;;;;4.12;64.90;103480.88;5046176;28;45532;-53
2022/01/12 09:18:03;;;;;;;;;58.50;43.50;;;;;4.15;64.59;103481.03;5053806;28;45397;-53
2022/01/12 09:20:29;;;;;;;;;50.75;40.50;;;;;4.18;64.78;103487.31;5055181;28;45318;-50
2022/01/12 09:22:55;;;;;;;;;55.25;44.50;;;;;4.19;64.68;103498.66;5053079;28;45352;-51
2022/01/12 09:25:20;;;;;;;;;54.00;43.75;;;;;4.21;64.97;103510.94;5054197;28;45434;-52
2022/01/12 09:27:46;;;;;;;;;53.75;42.00;;;;;4.22;64.98;103510.09;5053501;28;46096;-50
2022/01/12 09:30:13;;;;;;;;;54.50;44.00;;;;;4.22;64.73;103512.72;5049249;28;45499;-48
2022/01/12 09:32:39;;;;;;;;;59.25;47.00;;;;;4.25;64.56;103518.91;5051241;28;45373;-50
2022/01/12 09:35:05;;;;;;;;;62.25;46.75;;;;;4.26;64.64;103521.59;5052363;28;45329;-49
2022/01/12 09:37:31;;;;;;;;;58.25;44.75;;;;;4.26;64.65;103521.59;5058882;28;46299;-49
2022/01/12 09:39:56;;;;;;;;;59.25;47.25;;;;;4.26;64.71;103536.34;5045034;28;45338;-47
2022/01/12 09:42:21;;;;;;;;;57.50;45.25;;;;;4.26;64.78;103539.81;5040917;28;45452;-52
2022/01/12 09:44:48;;;;;;;;;58.25;45.00;;;;;4.24;65.06;103531.03;5059467;28;45407;-50
2022/01/12 09:47:15;;;;;;;;;61.00;45.75;;;;;4.22;64.65;103528.34;5054682;28;46594;-47
2022/01/12 09:49:42;;;;;;;;;64.75;48.00;;;;;4.29;65.07;103552.13;5051395;28;45491;-48
2022/01/12 09:52:08;;;;;;;;;61.75;46.25;;;;;4.28;64.96;103540.81;5059190;28;45476;-52
2022/01/12 09:54:34;;;;;;;;;58.25;43.75;;;;;4.31;65.00;103545.28;5059164;28;45423;-50
2022/01/12 09:56:59;;;;;;;;;62.75;45.00;;;;;4.35;64.97;103544.66;5059021;28;46423;-47
2022/01/12 09:59:26;;;;;;;;;68.00;50.25;;;;;4.37;65.08;103545.66;5052891;28;45301;-48
2022/01/12 10:01:54;;;;;;;;;65.50;48.50;;;;;4.37;65.01;103545.66;5045241;28;45372;-50
2022/01/12 10:04:22;;;;;;;;;59.75;45.50;;;;;4.39;65.09;103544.91;5059334;28;45338;-51
2022/01/12 10:06:51;;;;;;;;;60.75;44.50;;;;;4.44;65.01;103554.69;5058589;28;47018;-52
2022/01/12 10:09:23;;;;;;;;;62.50;48.50;;;;;4.46;64.87;103553.97;5054229;28;45482;-53
2022/01/12 10:11:54;;;;;;;;;60.75;48.75;;;;;4.49;65.27;103551.53;5059231;28;45548;-49
2022/01/12 10:14:20;;;;;;;;;65.25;47.25;;;;;4.52;65.17;103548.22;5044188;28;46815;-47
2022/01/12 10:16:53;;;;;;;;;60.25;45.75;;;;;4.52;65.22;103546.50;5047483;28;45515;-47
2022/01/12 10:19:25;;;;;;;;;64.25;48.75;;;;;4.59;65.00;103552.03;5054463;28;45451;-48
2022/01/12 10:21:51;;;;;;;;;62.00;46.25;;;;;4.59;65.17;103547.75;5058526;28;45462;-50
2022/01/12 10:24:19;;;;;;;;;66.00;53.25;;;;;4.62;64.98;103547.03;5044697;28;45370;-50
2022/01/12 10:26:46;;;;;;;;;62.50;49.00;;;;;4.66;65.26;103535.94;5058701;28;46928;-47
2022/01/12 10:29:11;;;;;;;;;62.75;47.50;;;;;4.69;65.17;103541.31;5042781;28;45420;-52
2022/01/12 10:31:45;;;;;;;;;65.25;49.00;;;;;4.75;65.14;103532.97;5056604;28;45372;-47
2022/01/12 10:34:11;;;;;;;;;67.00;49.75;;;;;4.78;65.24;103539.25;5056993;28;45329;-50
2022/01/12 10:36:39;;;;;;;;;65.75;51.00;;;;;4.85;65.35;103530.03;5046533;28;46899;-50
2022/01/12 10:39:06;;;;;;;;;64.75;50.50;;;;;4.92;65.45;103523.44;5049637;28;45333;-47
2022/01/12 10:41:31;;;;;;;;;66.25;49.00;;;;;5.03;65.47;103535.31;5050230;28;45505;-51
2022/01/12 10:43:56;;;;;;;;;66.75;51.25;;;;;5.12;65.27;103532.31;5031197;28;45547;-51
2022/01/12 10:46:26;;;;;;;;;63.25;48.00;;;;;5.21;65.35;103530.22;5049694;28;46066;-52
2022/01/12 10:48:53;;;;;;;;;62.25;48.75;;;;;5.31;65.45;103529.00;5053607;28;45474;-51
2022/01/12 10:51:28;;;;;;;;;63.00;48.25;;;;;5.33;65.55;103520.44;5052809;28;45444;-50
2022/01/12 10:54:03;;;;;;;;;67.50;49.50;;;;;5.52;65.33;103540.53;5049951;28;46521;-50
2022/01/12 10:56:29;;;;;;;;;65.25;48.00;;;;;5.62;65.50;103534.06;5051342;28;47045;-46
2022/01/12 10:58:56;;;;;;;;;61.75;50.00;;;;;5.67;65.52;103524.75;5051321;28;45219;-49
2022/01/12 11:01:28;;;;;;;;;64.00;49.75;;;;;5.79;65.59;103531.41;5054161;28;45326;-47
2022/01/12 11:03:54;;;;;;;;;60.25;47.50;;;;;5.85;65.43;103530.00;5051078;28;45616;-52
2022/01/12 11:06:19;;;;;;;;;66.75;51.25;;;;;5.93;65.59;103530.38;5051062;28;46262;-50
2022/01/12 11:08:48;;;;;;;;;69.50;52.75;;;;;6.00;65.52;103531.63;5051285;28;45533;-50
2022/01/12 11:11:17;;;;;;;;;65.25;51.00;;;;;6.06;65.23;103534.50;5053877;28;45400;-53
2022/01/12 11:13:45;;;;;;;;;71.00;53.50;;;;;6.14;65.50;103542.75;5050479;28;45455;-48
2022/01/12 11:16:12;;;;;;;;;72.50;52.25;;;;;6.21;65.44;103543.94;5050561;28;45263;-48
2022/01/12 11:18:39;;;;;;;;;66.25;52.25;;;;;6.27;65.47;103544.25;5031334;28;45460;-52
2022/01/12 11:21:23;;;;;;;;;64.75;50.25;;;;;6.32;65.38;103535.78;5050075;28;45550;-49
2022/01/12 11:23:51;;;;;;;;;63.00;49.00;;;;;6.39;65.39;103543.91;5054101;28;45306;-47
2022/01/12 11:26:17;;;;;;;;;62.50;49.00;;;;;6.47;65.47;103537.34;5048003;28;47196;-50
2022/01/12 11:28:44;;;;;;;;;63.75;48.00;;;;;6.52;65.39;103533.25;5061265;28;45549;-49
2022/01/12 11:31:12;;;;;;;;;64.00;48.50;;;;;6.56;65.38;103531.66;5061661;28;45463;-51
2022/01/12 11:33:40;;;;;;;;;62.50;49.50;;;;;6.58;65.46;103524.78;5040045;28;45914;-48
2022/01/12 11:36:13;;;;;;;;;57.25;42.75;;;;;6.63;65.24;103531.16;5061205;28;46229;-49
2022/01/12 11:38:39;;;;;;;;;66.25;51.50;;;;;6.66;65.52;103524.31;5060532;28;45273;-50
2022/01/12 11:41:10;;;;;;;;;66.00;51.00;;;;;6.70;65.41;103525.34;5049280;28;45440;-50
2022/01/12 11:43:46;;;;;;;;;66.00;52.25;;;;;6.74;65.42;103529.94;5038484;28;45341;-48
2022/01/12 11:46:14;;;;;;;;;64.00;51.00;;;;;6.79;65.10;103523.19;5057688;28;46146;-48
2022/01/12 11:48:44;;;;;;;;;68.00;51.50;;;;;6.83;65.12;103522.50;5065020;28;45310;-48
2022/01/12 11:51:10;;;;;;;;;70.25;52.00;;;;;6.88;65.23;103517.47;5052833;28;45522;-50
2022/01/12 11:53:47;;;;;;;;;68.50;50.25;;;;;6.94;65.26;103514.25;5039646;28;45485;-47
2022/01/12 11:56:18;;;;;;;;;65.25;52.25;;;;;6.99;65.10;103510.09;5060405;28;47525;-50
2022/01/12 11:58:54;;;;;;;;;66.25;50.50;;;;;7.04;65.17;103498.13;5060642;28;45334;-50
2022/01/12 12:01:22;;;;;;;;;66.00;51.50;;;;;7.09;65.02;103506.19;5055326;28;45309;-51
2022/01/12 12:04:02;;;;;;;;;65.75;51.50;;;;;7.13;64.95;103502.88;5061077;28;45316;-49
2022/01/12 12:06:28;;;;;;;;;66.00;53.75;;;;;7.18;64.98;103498.75;5060604;28;46078;-51
2022/01/12 12:09:04;;;;;;;;;63.25;50.00;;;;;7.23;64.70;103492.03;5055238;28;45483;-48
2022/01/12 12:11:32;;;;;;;;;68.00;52.75;;;;;7.26;65.09;103499.09;5037366;28;45234;-47
2022/01/12 12:14:08;;;;;;;;;65.00;51.25;;;;;7.30;64.88;103501.00;5053479;28;45451;-50
2022/01/12 12:16:35;;;;;;;;;64.00;49.00;;;;;7.31;64.87;103503.69;5052036;28;45514;-49
2022/01/12 12:19:05;;;;;;;;;67.25;52.00;;;;;7.34;64.71;103513.41;5034224;28;45469;-47
2022/01/12 12:21:35;;;;;;;;;64.50;49.50;;;;;7.39;65.04;103500.53;5040452;28;45399;-48
2022/01/12 12:24:18;;;;;;;;;63.75;50.75;;;;;7.46;64.92;103505.19;5051831;28;45422;-48
2022/01/12 12:26:51;;;;;;;;;66.00;50.25;;;;;7.49;64.70;103498.34;5054898;28;45428;-51
2022/01/12 12:29:26;;;;;;;;;72.50;52.75;;;;;7.55;65.05;103489.00;5036553;28;45246;-52
2022/01/12 12:31:53;;;;;;;;;63.50;50.75;;;;;7.58;64.81;103484.75;5052334;28;45229;-46
2022/01/12 12:34:23;;;;;;;;;71.75;51.50;;;;;7.64;64.74;103485.00;5056827;28;45405;-49
2022/01/12 12:37:04;;;;;;;;;68.50;53.00;;;;;7.67;64.89;103476.41;5033203;28;47657;-57
2022/01/12 12:39:33;;;;;;;;;64.75;50.50;;;;;7.71;65.09;103478.34;5062475;28;45264;-55